METAR Data
IDs: Format: Raw Decoded Include TAF

Data at: 1839 UTC 02 Oct 2022

KSNA 021832Z 00000KT 10SM SCT026 24/14 A2996 RMK AO2 T02440144
KSNA 021753Z 23004KT 10SM BKN025 23/14 A2997 RMK AO2 SLP146 T02280144 10233 20206 50008
KSNA 021653Z 00000KT 10SM OVC023 22/14 A2997 RMK AO2 SLP147 T02220144
KSNA 021553Z VRB03KT 10SM OVC022 22/14 A2996 RMK AO2 SLP143 T02170144
KSNA 021453Z 00000KT 10SM OVC021 21/14 A2994 RMK AO2 SLP139 T02110139 53018
KSNA 021353Z 00000KT 10SM OVC021 21/14 A2993 RMK AO2 SLP132 T02110144
KSNA 021253Z 21004KT 10SM OVC021 21/14 A2991 RMK AO2 SLP127 T02110139
KSNA 021153Z AUTO 20005KT 10SM OVC021 21/14 A2989 RMK AO2 SLP121 T02110139 10211 20211 56002
KSNA 021053Z AUTO 00000KT 10SM OVC021 21/14 A2989 RMK AO2 SLP121 T02110139
KSNA 020953Z AUTO 00000KT 10SM OVC020 21/14 A2990 RMK AO2 SLP122 T02110139
KSNA 020853Z AUTO 10003KT 10SM OVC021 21/14 A2990 RMK AO2 SLP124 T02110139 58001
KSNA 020753Z AUTO 14006KT 10SM OVC022 21/14 A2990 RMK AO2 SLP124 T02110139 402500200
KSNA 020653Z AUTO VRB04KT 10SM OVC021 21/14 A2991 RMK AO2 SLP125 T02110139
KSNA 020553Z 00000KT 10SM OVC018 21/14 A2990 RMK AO2 SLP125 LAST T02110144 10233 20211 51009
KSNA 020453Z 29003KT 10SM OVC020 21/14 A2990 RMK AO2 SLP125 T02110144
KSNA 020353Z 25004KT 10SM OVC022 21/14 A2989 RMK AO2 SLP119 T02110144
KSNA 020253Z 24004KT 10SM OVC023 21/14 A2988 RMK AO2 SLP116 T02110144 53014
KSNA 020208Z 23004KT 10SM BKN020 BKN026 21/14 A2987 RMK AO2 T02110144
KSNA 020153Z 23005KT 10SM SCT021 21/14 A2986 RMK AO2 SLP110 T02110139
KSNA 020053Z 21007KT 10SM SCT030 22/14 A2984 RMK AO2 SLP104 T02220139
KSNA 012353Z 20008KT 170V240 10SM SCT032 23/14 A2984 RMK AO2 SLP102 T02280144 10250 20222 56004
KSNA 012253Z 23008KT 190V260 10SM SCT030 24/14 A2984 RMK AO2 SLP103 T02390139
KSNA 012153Z 19011G20KT 170V240 10SM FEW026 24/13 A2984 RMK AO2 SLP103 T02440133
KSNA 012053Z 21007KT 10SM FEW026 24/13 A2985 RMK AO2 SLP106 T02440133 58015
KSNA 011953Z 19007KT 10SM FEW027 24/13 A2987 RMK AO2 SLP113 T02390133
KSNA 011853Z VRB04KT 10SM FEW028 24/13 A2988 RMK AO2 SLP116 T02390133
KSNA 011825Z 16005KT 10SM SCT027 23/14 A2988 RMK AO2 T02330139
KSNA 011753Z 00000KT 10SM BKN025 22/14 A2989 RMK AO2 SLP121 T02220139 10222 20200 50005
KSNA 011729Z 00000KT 10SM OVC025 22/14 A2990 RMK AO2 T02220139
KSNA 011653Z 01004KT 10SM OVC023 22/14 A2990 RMK AO2 SLP122 T02170139
KSNA 011553Z 04005KT 10SM OVC019 21/13 A2989 RMK AO2 SLP121 T02060133
KSNA 011453Z 17004KT 10SM OVC019 21/14 A2988 RMK AO2 SLP116 T02060139 53009
KSNA 011353Z 16003KT 10SM OVC020 21/14 A2987 RMK AO2 SLP112 T02060139
KSNA 011253Z 00000KT 10SM OVC020 21/14 A2985 RMK AO2 SLP108 T02060139
KSNA 011153Z AUTO 15003KT 10SM OVC020 21/14 A2985 RMK AO2 SLP106 T02060139 10217 20206 58002
KSNA 011053Z AUTO 00000KT 10SM OVC021 21/14 A2985 RMK AO2 SLP107 T02060139
KSNA 010953Z AUTO 12004KT 10SM OVC021 21/13 A2986 RMK AO2 SLP109 T02060133
KSNA 010853Z AUTO 18007KT 10SM OVC021 21/13 A2986 RMK AO2 SLP108 T02060133 53002
KSNA 010753Z AUTO 10003KT 10SM OVC020 21/14 A2985 RMK AO2 SLP107 T02060139 402440206
KSNA 010653Z AUTO 12007KT 10SM OVC021 21/14 A2985 RMK AO2 SLP107 T02110144